• Join FlightAware (Why Join?)
  • Login
  • US Flag 
07:19PM EDT


 

Airport Tracker/Info


-or-


 

Live Flight TrackerFlight Track Log ✈ N121JM ✈ 23 Nov 2013 ✈ KOAK - KVNY

Flight Track Log - Related Links

Times and Time Zones

All times are in EST time to prevent confusion due to time zone crossing. See the N121JM flight status page for this flight to view local times or setup timezone preferences in your user account.

Time Position Orientation Groundspeed Altitude Reporting Facility
EST Latitude Longitude Course Direction KTS MPH feet Rate Location/Type
07:44PM 37.7118 -122.2300 360° North 175 201 200  Level FlightAware ADS-B
07:44PM 37.7247 -122.2490 311° West 197 227 1,400 3,480 Climbing FlightAware ADS-B
07:44PM 37.7361 -122.2660 310° West 204 235 2,600 3,480 Climbing FlightAware ADS-B
07:45PM 37.7434 -122.2780 308° West 224 258 3,200 3,180 Climbing FlightAware ADS-B
07:45PM 37.7484 -122.2990 287° West 235 270 4,100 3,540 Climbing FlightAware ADS-B
07:45PM 37.7525 -122.3300 280° West 261 300 5,400 3,840 Climbing FlightAware ADS-B
07:45PM 37.7523 -122.3370 268° West 265 305 5,700 4,500 Climbing FlightAware ADS-B
07:45PM 37.7516 -122.3410 258° West 265 305 6,000 4,680 Climbing FlightAware ADS-B
07:46PM 37.7462 -122.3560 246° West 268 308 6,800 3,900 Climbing FlightAware ADS-B
07:46PM 37.7312 -122.3720 220° Southwest 277 319 7,700 3,480 Climbing FlightAware ADS-B
07:46PM 37.7160 -122.3840 212° Southwest 290 334 8,500 3,060 Climbing FlightAware ADS-B
07:46PM 37.6804 -122.4040 204° Southwest 317 365 9,800 2,700 Climbing FlightAware ADS-B
07:47PM 37.6757 -122.4060 199° South 322 371 9,900 1,620 Climbing FlightAware ADS-B
07:47PM 37.6637 -122.4080 188° South 334 384 10,100 1,860 Climbing FlightAware ADS-B
07:47PM 37.6468 -122.4090 183° South 342 394 10,500 2,400 Climbing FlightAware ADS-B
07:47PM 37.6408 -122.4080 172° South 345 397 10,700 2,400 Climbing FlightAware ADS-B
07:47PM 37.6313 -122.4060 171° South 348 400 10,900 2,580 Climbing FlightAware ADS-B
07:47PM 37.6157 -122.3990 160° South 351 404 11,400 2,460 Climbing FlightAware ADS-B
07:48PM 37.5892 -122.3780 148° Southeast 357 411 12,100 2,100 Climbing FlightAware ADS-B
07:48PM 37.5535 -122.3340 136° Southeast 378 435 13,100 2,160 Climbing FlightAware ADS-B
07:48PM 37.5293 -122.3030 135° Southeast 391 450 13,900 2,880 Climbing FlightAware ADS-B
07:49PM 37.4909 -122.2530 134° Southeast 394 453 15,500 3,480 Climbing FlightAware ADS-B
07:49PM 37.4529 -122.2040 134° Southeast 386 444 17,400 3,300 Climbing FlightAware ADS-B
07:50PM 37.4108 -122.1510 135° Southeast 385 443 19,000 2,580 Climbing FlightAware ADS-B
07:50PM 37.3696 -122.1010 136° Southeast 406 467 20,200 2,520 Climbing FlightAware ADS-B
07:51PM 37.3277 -122.0460 134° Southeast 409 471 21,700 2,520 Climbing FlightAware ADS-B
07:51PM 37.2970 -122.0050 133° Southeast 423 487 22,600 2,460 Climbing FlightAware ADS-B
07:52PM 37.2486 -121.9440 135° Southeast 430 495 24,100 2,400 Climbing FlightAware ADS-B
07:52PM 37.2034 -121.8880 135° Southeast 441 507 25,300 2,100 Climbing FlightAware ADS-B
07:53PM 37.1584 -121.8320 135° Southeast 455 524 26,300 2,160 Climbing FlightAware ADS-B
07:53PM 37.1133 -121.7750 135° Southeast 462 532 27,500 2,460 Climbing FlightAware ADS-B
07:54PM 37.0643 -121.7130 135° Southeast 466 536 28,900 2,640 Climbing FlightAware ADS-B
07:54PM 37.0187 -121.6560 135° Southeast 466 536 30,300 2,700 Climbing FlightAware ADS-B
07:55PM 36.9695 -121.5940 135° Southeast 467 537 31,700 1,980 Climbing FlightAware ADS-B
07:56PM 36.9223 -121.5340 135° Southeast 479 551 32,400 960 Climbing FlightAware ADS-B
07:56PM 36.8562 -121.4540 136° Southeast 485 558 32,900 360 Climbing FlightAware ADS-B
07:57PM 36.7782 -121.3560 135° Southeast 484 557 33,000 60 Climbing FlightAware ADS-B
07:58PM 36.7344 -121.3114 135° Southeast 483 556 33,000  Level Los Angeles Center
07:59PM 36.6411 -121.1906 134° Southeast 484 557 33,000  Level Los Angeles Center
08:00PM 36.5428 -121.0789 138° Southeast 482 555 33,100  Climbing Oakland Center
08:01PM 36.4431 -120.9653 137° Southeast 486 559 33,000 -60 Descending Oakland Center
08:02PM 36.3431 -120.8497 137° Southeast 491 565 33,000  Level Oakland Center
08:03PM 36.2425 -120.7336 137° Southeast 494 568 33,000  Level Oakland Center
08:04PM 36.1364 -120.6231 140° Southeast 498 573 33,000  Level Oakland Center
08:05PM 36.0353 -120.5050 137° Southeast 498 573 33,000  Level Oakland Center
08:06PM 35.9339 -120.3875 137° Southeast 499 574 33,000  Level Oakland Center
08:07PM 35.8300 -120.2728 138° Southeast 500 575 33,000 -60 Level Oakland Center
08:08PM 35.7256 -120.1572 138° Southeast 500 575 32,900  Descending Oakland Center
08:09PM 35.6217 -120.0425 138° Southeast 498 573 33,000 -120 Climbing Oakland Center
08:10PM 35.5172 -119.9286 138° Southeast 497 572 32,700 -840 Descending Oakland Center
08:11PM 35.4161 -119.8150 138° Southeast 490 564 31,400 -1,380 Descending Oakland Center
08:12PM 35.3142 -119.6994 137° Southeast 494 568 29,900 -1,380 Descending Oakland Center
08:13PM 35.2047 -119.5939 142° Southeast 498 573 28,600 -1,860 Descending Oakland Center
08:14PM 35.0642 -119.4789 146° Southeast 503 579 26,200 -2,760 Descending Oakland Center
08:15PM 34.9564 -119.3847 144° Southeast 484 557 23,100 -3,180 Descending Oakland Center
08:16PM 34.8531 -119.2956 145° Southeast 465 535 19,900 -3,060 Descending Oakland Center
08:17PM 34.7517 -119.2153 147° Southeast 445 512 17,000 -3,000 Descending Oakland Center
08:18PM 34.6611 -119.1322 143° Southeast 420 483 13,900 -1,620 Descending Oakland Center
08:24PM 34.2578 -118.7425 143° Southeast 268 308 5,600 -1,380 Descending FlightAware ADS-B
08:25PM 34.2333 -118.6833 143° Southeast 256 295 4,800 -1,020 Descending Southern California TRACON
08:25PM 34.2197 -118.6367 109° East 256 295 4,200 -900 Descending Los Angeles Center
08:26PM 34.1811 -118.5850 132° Southeast 224 258 3,300 -840 Descending Los Angeles Center
08:27PM 34.1486 -118.5336 127° Southeast 204 235 2,600 -960 Descending Los Angeles Center
08:28PM 34.1672 -118.4906 62° Northeast 182 209 1,400 -1,200 Descending Los Angeles Center